Time;durP1;ratioP1;P1;durP2;ratioP2;P2;SDS_P1;SDS_P2;PMS_P1;PMS_P2;Temp;Humidity;BMP_temperature;BMP_pressure;BME280_temperature;BME280_humidity;BME280_pressure;Samples;Min_cycle;Max_cycle;Signal;HPM_P1;HPM_P2
2022/08/24 00:00:50;;;;;;;6.00;2.05;;;;;;;;;;5042481;28;20478;-67
2022/08/24 00:03:16;;;;;;;6.55;2.17;;;;;;;;;;5043100;28;20047;-66
2022/08/24 00:05:42;;;;;;;10.13;2.13;;;;;;;;;;5042490;28;20840;-68
2022/08/24 00:08:08;;;;;;;7.18;2.10;;;;;;;;;;5047565;28;20032;-66
2022/08/24 00:10:34;;;;;;;8.18;2.00;;;;;;;;;;5043916;28;20074;-66
2022/08/24 00:13:00;;;;;;;8.55;1.92;;;;;;;;;;5043100;28;20040;-67
2022/08/24 00:15:27;;;;;;;6.82;1.90;;;;;;;;;;5042904;28;21243;-66
2022/08/24 00:17:53;;;;;;;6.75;1.90;;;;;;;;;;5045001;28;20475;-66
2022/08/24 00:20:19;;;;;;;8.30;2.35;;;;;;;;;;5042068;28;20425;-66
2022/08/24 00:22:45;;;;;;;8.23;2.10;;;;;;;;;;5040739;28;20044;-66
2022/08/24 00:25:12;;;;;;;4.88;1.60;;;;;;;;;;5044313;28;20044;-66
2022/08/24 00:27:38;;;;;;;7.75;1.90;;;;;;;;;;5040666;28;20091;-66
2022/08/24 00:30:06;;;;;;;5.60;1.88;;;;;;;;;;5042096;28;21539;-67
2022/08/24 00:32:32;;;;;;;9.85;2.05;;;;;;;;;;5038986;28;20306;-67
2022/08/24 00:34:58;;;;;;;6.85;2.17;;;;;;;;;;5040507;28;20350;-67
2022/08/24 00:37:24;;;;;;;6.47;1.88;;;;;;;;;;5042272;28;20028;-67
2022/08/24 00:39:51;;;;;;;9.55;2.30;;;;;;;;;;5040043;28;20029;-67
2022/08/24 00:42:17;;;;;;;8.10;1.90;;;;;;;;;;5044542;28;21220;-65
2022/08/24 00:44:43;;;;;;;5.95;1.80;;;;;;;;;;5039891;28;20033;-67
2022/08/24 00:47:19;;;;;;;8.15;2.03;;;;;;;;;;5044566;28;20151;-66
2022/08/24 00:49:48;;;;;;;7.05;2.10;;;;;;;;;;5043226;28;20028;-67
2022/08/24 00:52:15;;;;;;;9.52;2.20;;;;;;;;;;5045430;28;20054;-67
2022/08/24 00:54:46;;;;;;;7.38;2.00;;;;;;;;;;5042024;28;20047;-67
2022/08/24 00:57:14;;;;;;;7.75;1.90;;;;;;;;;;5043954;28;20032;-67
2022/08/24 00:59:46;;;;;;;6.07;1.98;;;;;;;;;;5045407;28;20432;-67
2022/08/24 01:02:14;;;;;;;7.82;2.03;;;;;;;;;;5043214;28;20028;-67
2022/08/24 01:04:43;;;;;;;7.70;2.20;;;;;;;;;;5044543;28;20458;-67
2022/08/24 01:07:09;;;;;;;7.82;1.98;;;;;;;;;;5044458;28;20036;-66
2022/08/24 01:09:35;;;;;;;9.88;1.70;;;;;;;;;;5040752;28;20035;-66
2022/08/24 01:12:01;;;;;;;10.48;2.00;;;;;;;;;;5043443;28;20036;-66
2022/08/24 01:14:28;;;;;;;9.05;1.88;;;;;;;;;;5039254;28;20039;-66
2022/08/24 01:19:44;;;;;;;5.55;1.60;;;;;;;;;;5038346;28;20035;-67
2022/08/24 01:22:19;;;;;;;8.35;1.90;;;;;;;;;;5058694;28;20618;-67
2022/08/24 01:24:46;;;;;;;7.87;1.90;;;;;;;;;;5040943;28;20028;-68
2022/08/24 01:27:14;;;;;;;6.93;1.80;;;;;;;;;;5043748;28;20272;-68
2022/08/24 01:29:41;;;;;;;7.63;1.88;;;;;;;;;;5038901;28;20032;-68
2022/08/24 01:32:07;;;;;;;5.93;1.55;;;;;;;;;;5041325;28;20112;-67
2022/08/24 01:34:34;;;;;;;7.32;1.70;;;;;;;;;;5037186;28;20024;-67
2022/08/24 01:37:01;;;;;;;7.28;1.83;;;;;;;;;;5041983;28;20028;-67
2022/08/24 01:39:32;;;;;;;7.60;1.73;;;;;;;;;;5033235;28;20028;-67
2022/08/24 01:41:58;;;;;;;7.45;1.90;;;;;;;;;;5042480;28;20036;-67
2022/08/24 01:44:25;;;;;;;10.02;2.10;;;;;;;;;;5044439;28;20779;-67
2022/08/24 01:46:52;;;;;;;8.00;2.30;;;;;;;;;;5040097;28;20607;-67
2022/08/24 01:49:19;;;;;;;8.98;3.05;;;;;;;;;;5042205;28;20042;-67
2022/08/24 01:51:45;;;;;;;8.63;3.20;;;;;;;;;;5042935;28;20769;-68
2022/08/24 01:54:12;;;;;;;9.60;3.10;;;;;;;;;;5045776;28;20073;-67
2022/08/24 01:56:38;;;;;;;8.82;2.95;;;;;;;;;;5040877;28;20593;-68
2022/08/24 01:59:05;;;;;;;7.07;2.28;;;;;;;;;;5058126;28;20035;-67
2022/08/24 02:01:33;;;;;;;7.68;2.30;;;;;;;;;;5037177;28;20028;-67
2022/08/24 02:04:02;;;;;;;8.05;2.15;;;;;;;;;;5044127;28;20529;-67
2022/08/24 02:06:28;;;;;;;7.28;2.13;;;;;;;;;;5037991;28;20033;-67
2022/08/24 02:08:54;;;;;;;7.22;2.05;;;;;;;;;;5043172;28;20032;-68
2022/08/24 02:11:21;;;;;;;8.45;2.33;;;;;;;;;;5038688;28;20380;-67
2022/08/24 02:13:47;;;;;;;6.72;1.90;;;;;;;;;;5040287;28;20709;-67
2022/08/24 02:16:13;;;;;;;8.20;2.15;;;;;;;;;;5038959;28;20081;-67
2022/08/24 02:18:40;;;;;;;6.07;1.70;;;;;;;;;;5036797;28;20033;-67
2022/08/24 02:21:10;;;;;;;6.57;1.70;;;;;;;;;;5036379;28;20734;-67
2022/08/24 02:23:37;;;;;;;7.13;1.90;;;;;;;;;;5036392;28;20067;-67
2022/08/24 02:26:04;;;;;;;6.43;1.77;;;;;;;;;;5043459;28;20469;-67
2022/08/24 02:28:30;;;;;;;6.90;1.80;;;;;;;;;;5033838;28;20036;-67
2022/08/24 02:30:56;;;;;;;6.72;2.00;;;;;;;;;;5041538;28;20707;-67
2022/08/24 02:33:22;;;;;;;8.98;2.63;;;;;;;;;;5037037;28;20424;-67
2022/08/24 02:35:49;;;;;;;11.48;2.20;;;;;;;;;;5038728;28;20012;-67
2022/08/24 02:38:15;;;;;;;8.90;2.20;;;;;;;;;;5041587;28;20381;-67
2022/08/24 02:40:42;;;;;;;7.72;1.85;;;;;;;;;;5037296;28;20039;-67
2022/08/24 02:43:09;;;;;;;7.47;2.05;;;;;;;;;;5040598;28;20625;-68
2022/08/24 02:45:42;;;;;;;7.28;2.20;;;;;;;;;;5041475;28;20037;-67
2022/08/24 02:48:09;;;;;;;6.88;1.90;;;;;;;;;;5047024;28;20040;-67
2022/08/24 02:50:39;;;;;;;6.50;1.80;;;;;;;;;;5037409;28;20120;-68
2022/08/24 02:53:06;;;;;;;7.07;2.10;;;;;;;;;;5039215;28;20535;-67
2022/08/24 02:55:32;;;;;;;7.00;2.15;;;;;;;;;;5035076;28;20101;-67
2022/08/24 02:57:58;;;;;;;9.32;2.40;;;;;;;;;;5039818;28;20091;-67
2022/08/24 03:00:25;;;;;;;8.77;2.50;;;;;;;;;;5040500;28;20565;-67
2022/08/24 03:02:52;;;;;;;9.38;2.15;;;;;;;;;;5034901;28;20036;-67
2022/08/24 03:05:18;;;;;;;10.32;2.38;;;;;;;;;;5043867;28;20032;-67
2022/08/24 03:07:44;;;;;;;7.90;2.13;;;;;;;;;;5036382;28;20036;-67
2022/08/24 03:10:11;;;;;;;7.68;2.17;;;;;;;;;;5043504;28;20020;-67
2022/08/24 03:12:37;;;;;;;10.90;2.65;;;;;;;;;;5037820;28;20129;-67
2022/08/24 03:15:05;;;;;;;5.85;2.17;;;;;;;;;;5047275;28;20390;-67
2022/08/24 03:17:32;;;;;;;8.90;2.50;;;;;;;;;;5043979;28;20028;-67
2022/08/24 03:19:59;;;;;;;8.32;2.28;;;;;;;;;;5045783;28;20154;-67
2022/08/24 03:22:25;;;;;;;8.18;2.38;;;;;;;;;;5049501;28;20550;-67
2022/08/24 03:24:51;;;;;;;8.15;2.35;;;;;;;;;;5044142;28;20191;-67
2022/08/24 03:27:17;;;;;;;6.90;2.10;;;;;;;;;;5047619;28;20272;-67
2022/08/24 03:29:44;;;;;;;6.20;2.00;;;;;;;;;;5044143;28;20028;-67
2022/08/24 03:32:10;;;;;;;10.07;2.42;;;;;;;;;;5047138;28;20040;-67
2022/08/24 03:34:37;;;;;;;7.95;2.28;;;;;;;;;;5042971;28;20056;-67
2022/08/24 03:37:03;;;;;;;9.15;2.50;;;;;;;;;;5045357;28;20025;-67
2022/08/24 03:39:30;;;;;;;7.35;2.40;;;;;;;;;;5041445;28;20028;-67
2022/08/24 03:41:56;;;;;;;9.70;1.90;;;;;;;;;;5047379;28;20028;-67
2022/08/24 03:44:24;;;;;;;8.27;2.22;;;;;;;;;;5043918;28;20032;-67
2022/08/24 03:46:51;;;;;;;7.90;2.33;;;;;;;;;;5043630;28;20980;-67
2022/08/24 03:49:18;;;;;;;8.50;2.50;;;;;;;;;;5045671;28;20064;-67
2022/08/24 03:51:44;;;;;;;7.45;2.25;;;;;;;;;;5045127;28;20835;-67
2022/08/24 03:54:12;;;;;;;8.30;2.45;;;;;;;;;;5044025;28;20051;-67
2022/08/24 03:56:38;;;;;;;9.20;2.20;;;;;;;;;;5044236;28;20048;-67
2022/08/24 03:59:04;;;;;;;9.13;2.50;;;;;;;;;;5050072;28;20123;-67
2022/08/24 04:01:31;;;;;;;8.88;2.35;;;;;;;;;;5043380;28;20509;-67
2022/08/24 04:03:58;;;;;;;6.88;1.90;;;;;;;;;;5052346;28;20438;-67
2022/08/24 04:06:25;;;;;;;9.15;2.35;;;;;;;;;;5049080;28;20028;-67
2022/08/24 04:08:52;;;;;;;7.35;2.30;;;;;;;;;;5045980;28;20366;-67
2022/08/24 04:11:22;;;;;;;7.60;2.20;;;;;;;;;;5050819;28;20148;-67
2022/08/24 04:13:48;;;;;;;9.65;2.28;;;;;;;;;;5045538;28;20148;-67
2022/08/24 04:16:16;;;;;;;8.45;2.42;;;;;;;;;;5048847;28;20028;-67
2022/08/24 04:18:42;;;;;;;7.80;2.15;;;;;;;;;;5041454;28;20068;-68
2022/08/24 04:21:19;;;;;;;8.65;2.20;;;;;;;;;;5048455;28;20353;-67
2022/08/24 04:23:45;;;;;;;8.73;2.30;;;;;;;;;;5044737;28;20041;-67
2022/08/24 04:26:12;;;;;;;7.97;2.22;;;;;;;;;;5043306;28;20047;-67
2022/08/24 04:28:38;;;;;;;6.28;2.03;;;;;;;;;;5039474;28;20242;-67
2022/08/24 04:31:04;;;;;;;5.47;1.80;;;;;;;;;;5042347;28;20068;-67
2022/08/24 04:33:31;;;;;;;8.40;1.90;;;;;;;;;;5038708;28;20584;-66
2022/08/24 04:35:57;;;;;;;7.63;2.03;;;;;;;;;;5041230;28;20028;-66
2022/08/24 04:38:23;;;;;;;6.18;1.90;;;;;;;;;;5059077;28;20515;-67
2022/08/24 04:40:49;;;;;;;7.18;2.00;;;;;;;;;;5040113;28;20032;-67
2022/08/24 04:43:16;;;;;;;10.70;2.47;;;;;;;;;;5042481;28;21320;-67
2022/08/24 04:45:44;;;;;;;8.93;2.20;;;;;;;;;;5039140;28;20070;-66
2022/08/24 04:48:10;;;;;;;7.18;2.00;;;;;;;;;;5043697;28;20094;-67
2022/08/24 04:50:38;;;;;;;7.53;2.10;;;;;;;;;;5045679;28;20443;-66
2022/08/24 04:53:06;;;;;;;11.07;2.22;;;;;;;;;;5045674;28;20060;-66
2022/08/24 04:55:33;;;;;;;6.88;2.05;;;;;;;;;;5040996;28;20862;-67
2022/08/24 04:57:59;;;;;;;7.68;2.28;;;;;;;;;;5044605;28;20105;-67
2022/08/24 05:00:25;;;;;;;6.47;2.00;;;;;;;;;;5045327;28;20064;-66
2022/08/24 05:02:51;;;;;;;5.68;1.92;;;;;;;;;;5044931;28;20032;-67
2022/08/24 05:05:18;;;;;;;7.00;2.40;;;;;;;;;;5042366;28;20522;-68
2022/08/24 05:07:44;;;;;;;6.72;2.22;;;;;;;;;;5042794;28;20042;-66
2022/08/24 05:10:10;;;;;;;8.75;2.60;;;;;;;;;;5044482;28;20020;-66
2022/08/24 05:12:37;;;;;;;7.80;2.35;;;;;;;;;;5042783;28;20549;-66
2022/08/24 05:15:04;;;;;;;8.68;2.40;;;;;;;;;;5041920;28;20033;-67
2022/08/24 05:17:30;;;;;;;8.43;2.63;;;;;;;;;;5044773;28;20036;-68
2022/08/24 05:19:57;;;;;;;8.80;2.50;;;;;;;;;;5046668;28;20119;-68
2022/08/24 05:22:23;;;;;;;8.45;2.20;;;;;;;;;;5044521;28;20033;-68
2022/08/24 05:24:50;;;;;;;9.55;2.83;;;;;;;;;;5040506;28;20151;-68
2022/08/24 05:27:17;;;;;;;8.15;2.67;;;;;;;;;;5046356;28;20079;-68
2022/08/24 05:29:44;;;;;;;8.30;2.42;;;;;;;;;;5040545;28;20028;-66
2022/08/24 05:32:10;;;;;;;7.90;2.20;;;;;;;;;;5045888;28;20039;-66
2022/08/24 05:34:36;;;;;;;8.77;2.80;;;;;;;;;;5045416;28;20038;-66
2022/08/24 05:37:03;;;;;;;6.63;2.28;;;;;;;;;;5045927;28;20082;-67
2022/08/24 05:39:30;;;;;;;8.00;1.95;;;;;;;;;;5038320;28;20367;-66
2022/08/24 05:41:58;;;;;;;7.80;2.15;;;;;;;;;;5046233;28;20028;-66
2022/08/24 05:44:25;;;;;;;6.45;2.00;;;;;;;;;;5042916;28;20028;-66
2022/08/24 05:46:53;;;;;;;7.75;2.17;;;;;;;;;;5041388;28;20028;-66
2022/08/24 05:49:19;;;;;;;6.57;2.20;;;;;;;;;;5042672;28;20067;-66
2022/08/24 05:51:45;;;;;;;8.13;2.38;;;;;;;;;;5039844;28;20097;-66
2022/08/24 05:54:12;;;;;;;11.75;2.55;;;;;;;;;;5044933;28;20390;-67
2022/08/24 05:56:39;;;;;;;8.95;2.10;;;;;;;;;;5041634;28;20040;-66
2022/08/24 05:59:05;;;;;;;7.97;2.50;;;;;;;;;;5040851;28;20396;-67
2022/08/24 06:01:32;;;;;;;6.43;1.90;;;;;;;;;;5042600;28;20153;-66
2022/08/24 06:03:58;;;;;;;9.50;2.22;;;;;;;;;;5043986;28;20483;-66
2022/08/24 06:06:25;;;;;;;8.55;2.22;;;;;;;;;;5042498;28;20036;-67
2022/08/24 06:08:53;;;;;;;7.00;1.90;;;;;;;;;;5046371;28;20279;-67
2022/08/24 06:11:31;;;;;;;9.95;1.80;;;;;;;;;;5048015;28;20046;-66
2022/08/24 06:13:59;;;;;;;5.70;1.80;;;;;;;;;;5039597;28;20497;-67
2022/08/24 06:16:25;;;;;;;7.20;2.10;;;;;;;;;;5045872;28;20939;-67
2022/08/24 06:18:52;;;;;;;5.18;1.55;;;;;;;;;;5040314;28;20035;-67
2022/08/24 06:21:20;;;;;;;8.00;2.25;;;;;;;;;;5042782;28;20036;-67
2022/08/24 06:23:47;;;;;;;7.35;2.28;;;;;;;;;;5040882;28;20651;-67
2022/08/24 06:28:59;;;;;;;7.78;2.10;;;;;;;;;;5046140;28;20070;-67
2022/08/24 06:31:26;;;;;;;14.38;2.38;;;;;;;;;;5046234;28;20463;-67
2022/08/24 06:33:53;;;;;;;8.77;2.20;;;;;;;;;;5046729;28;20066;-67
2022/08/24 06:36:19;;;;;;;9.23;2.33;;;;;;;;;;5045734;28;20393;-67
2022/08/24 06:38:45;;;;;;;8.95;2.45;;;;;;;;;;5041390;28;20051;-67
2022/08/24 06:41:11;;;;;;;8.02;2.70;;;;;;;;;;5044367;28;20037;-67
2022/08/24 06:43:37;;;;;;;9.45;2.50;;;;;;;;;;5038891;28;20036;-67
2022/08/24 06:46:04;;;;;;;8.93;2.83;;;;;;;;;;5044642;28;20466;-67
2022/08/24 06:48:31;;;;;;;9.90;2.65;;;;;;;;;;5039892;28;20133;-67
2022/08/24 06:50:57;;;;;;;9.75;2.80;;;;;;;;;;5046928;28;20296;-67
2022/08/24 06:53:23;;;;;;;7.50;2.70;;;;;;;;;;5041149;28;20139;-66
2022/08/24 06:55:55;;;;;;;10.00;2.85;;;;;;;;;;5043967;28;20060;-67
2022/08/24 06:58:21;;;;;;;9.85;3.10;;;;;;;;;;5045292;28;20024;-67
2022/08/24 07:00:48;;;;;;;10.50;3.00;;;;;;;;;;5044912;28;20864;-67
2022/08/24 07:03:15;;;;;;;11.43;2.80;;;;;;;;;;5045573;28;20968;-67
2022/08/24 07:05:48;;;;;;;9.55;2.85;;;;;;;;;;5044537;28;20111;-68
2022/08/24 07:08:15;;;;;;;11.82;3.03;;;;;;;;;;5045300;28;20103;-68
2022/08/24 07:10:41;;;;;;;8.43;2.92;;;;;;;;;;5042319;28;20024;-68
2022/08/24 07:13:09;;;;;;;11.48;3.13;;;;;;;;;;5044357;28;20447;-69
2022/08/24 07:15:35;;;;;;;9.98;2.97;;;;;;;;;;5040678;28;20676;-67
2022/08/24 07:18:01;;;;;;;8.63;2.22;;;;;;;;;;5043718;28;20032;-68
2022/08/24 07:20:29;;;;;;;8.18;3.20;;;;;;;;;;5040342;28;20130;-68
2022/08/24 07:22:55;;;;;;;8.48;2.65;;;;;;;;;;5044844;28;20020;-67
2022/08/24 07:25:21;;;;;;;13.25;3.60;;;;;;;;;;5043042;28;20047;-67
2022/08/24 07:27:47;;;;;;;10.80;3.47;;;;;;;;;;5044312;28;20051;-67
2022/08/24 07:30:14;;;;;;;11.90;4.15;;;;;;;;;;5049124;28;20047;-67
2022/08/24 07:32:40;;;;;;;12.60;4.40;;;;;;;;;;5044650;28;20082;-67
2022/08/24 07:35:06;;;;;;;13.43;3.90;;;;;;;;;;5046514;28;20033;-67
2022/08/24 07:37:32;;;;;;;12.10;3.63;;;;;;;;;;5042351;28;20032;-67
2022/08/24 07:39:58;;;;;;;10.32;3.17;;;;;;;;;;5042669;28;20028;-67
2022/08/24 07:42:25;;;;;;;12.07;3.10;;;;;;;;;;5043794;28;20039;-67
2022/08/24 07:44:51;;;;;;;9.32;2.90;;;;;;;;;;5036881;28;20589;-67
2022/08/24 07:47:17;;;;;;;9.40;2.58;;;;;;;;;;5045254;28;20028;-67
2022/08/24 07:49:43;;;;;;;10.60;2.90;;;;;;;;;;5034867;28;20612;-68
2022/08/24 07:52:09;;;;;;;10.18;2.55;;;;;;;;;;5046605;28;20068;-68
2022/08/24 07:54:36;;;;;;;11.23;2.75;;;;;;;;;;5040666;28;20073;-68
2022/08/24 07:57:05;;;;;;;9.20;2.50;;;;;;;;;;5042615;28;20419;-68
2022/08/24 07:59:31;;;;;;;12.07;3.20;;;;;;;;;;5036244;28;20020;-68
2022/08/24 08:01:57;;;;;;;11.93;3.55;;;;;;;;;;5049775;28;20032;-68
2022/08/24 08:04:24;;;;;;;11.02;3.20;;;;;;;;;;5051115;28;20032;-68
2022/08/24 08:06:51;;;;;;;10.00;3.28;;;;;;;;;;5045200;28;20396;-68
2022/08/24 08:09:17;;;;;;;13.95;4.05;;;;;;;;;;5049256;28;20710;-68
2022/08/24 08:11:44;;;;;;;21.13;4.55;;;;;;;;;;5042211;28;20039;-68
2022/08/24 08:14:10;;;;;;;10.40;3.65;;;;;;;;;;5045960;28;20092;-68
2022/08/24 08:16:39;;;;;;;11.45;3.58;;;;;;;;;;5041236;28;20036;-69
2022/08/24 08:19:05;;;;;;;8.63;2.28;;;;;;;;;;5043489;28;20032;-68
2022/08/24 08:24:21;;;;;;;7.90;2.45;;;;;;;;;;5045687;28;20109;-68
2022/08/24 08:26:52;;;;;;;7.85;2.05;;;;;;;;;;5045676;28;20412;-68
2022/08/24 08:29:18;;;;;;;8.45;2.33;;;;;;;;;;5049370;28;20055;-68
2022/08/24 08:31:45;;;;;;;7.95;1.85;;;;;;;;;;5044549;28;20045;-66
2022/08/24 08:34:11;;;;;;;10.00;2.38;;;;;;;;;;5046016;28;20394;-66
2022/08/24 08:36:39;;;;;;;5.93;1.65;;;;;;;;;;5044666;28;20063;-66
2022/08/24 08:39:06;;;;;;;7.90;2.00;;;;;;;;;;5045603;28;20114;-68
2022/08/24 08:41:42;;;;;;;8.70;2.42;;;;;;;;;;5045890;28;20411;-67
2022/08/24 08:44:14;;;;;;;8.43;2.00;;;;;;;;;;5046002;28;20285;-67
2022/08/24 08:46:59;;;;;;;7.18;1.95;;;;;;;;;;5043764;28;20454;-67
2022/08/24 08:49:41;;;;;;;8.32;1.85;;;;;;;;;;5063849;28;20035;-67
2022/08/24 08:52:23;;;;;;;8.57;2.22;;;;;;;;;;5045309;28;20032;-68
2022/08/24 08:54:52;;;;;;;11.85;2.10;;;;;;;;;;5039915;28;20500;-68
2022/08/24 08:57:25;;;;;;;9.77;2.20;;;;;;;;;;5041315;28;20029;-67
2022/08/24 09:00:10;;;;;;;8.93;2.17;;;;;;;;;;5041654;28;20466;-67
2022/08/24 09:02:55;;;;;;;7.50;1.80;;;;;;;;;;5044142;28;20028;-67
2022/08/24 09:05:30;;;;;;;7.07;1.85;;;;;;;;;;5045715;28;20043;-67
2022/08/24 09:08:13;;;;;;;8.37;1.97;;;;;;;;;;5060740;28;20044;-67
2022/08/24 09:11:00;;;;;;;6.07;1.73;;;;;;;;;;5062489;28;20036;-67
2022/08/24 09:13:47;;;;;;;8.43;1.88;;;;;;;;;;5047858;28;20275;-67
2022/08/24 09:16:13;;;;;;;7.15;1.60;;;;;;;;;;5047005;28;20089;-67
2022/08/24 09:18:40;;;;;;;5.53;1.45;;;;;;;;;;5041470;28;20052;-67
2022/08/24 09:21:13;;;;;;;9.55;1.52;;;;;;;;;;5049350;28;20029;-68
2022/08/24 09:23:59;;;;;;;7.68;1.27;;;;;;;;;;5056024;28;20063;-68
2022/08/24 09:26:25;;;;;;;;;;;;;;;;;;5052591;28;20031;-67
2022/08/24 09:28:54;;;;;;;5.00;1.55;;;;;;;;;;5037542;28;19912;-67
2022/08/24 09:31:27;;;;;;;7.72;1.60;;;;;;;;;;5041436;28;20070;-67
2022/08/24 09:34:08;;;;;;;5.95;1.42;;;;;;;;;;5043219;28;20906;-68
2022/08/24 09:36:40;;;;;;;7.47;1.60;;;;;;;;;;5044581;28;20027;-69
2022/08/24 09:39:30;;;;;;;6.00;1.27;;;;;;;;;;5045446;28;20058;-67
2022/08/24 09:42:15;;;;;;;7.07;1.63;;;;;;;;;;5032346;28;20048;-66
2022/08/24 09:44:44;;;;;;;6.68;1.60;;;;;;;;;;5038213;28;20631;-67
2022/08/24 09:47:28;;;;;;;6.20;1.50;;;;;;;;;;5040063;28;20419;-67
2022/08/24 09:49:58;;;;;;;6.50;1.50;;;;;;;;;;5041894;28;20091;-67
2022/08/24 09:52:27;;;;;;;6.57;1.52;;;;;;;;;;5043777;28;20041;-67
2022/08/24 09:54:53;;;;;;;4.32;1.20;;;;;;;;;;5041017;28;20028;-67
2022/08/24 09:57:22;;;;;;;7.90;1.50;;;;;;;;;;5050798;28;20130;-67
2022/08/24 10:00:08;;;;;;;5.38;1.27;;;;;;;;;;5041670;28;20040;-66
2022/08/24 10:02:53;;;;;;;8.13;1.50;;;;;;;;;;5056375;28;20029;-66
2022/08/24 10:05:37;;;;;;;6.47;1.40;;;;;;;;;;5052392;28;20934;-67
2022/08/24 10:08:22;;;;;;;6.40;1.42;;;;;;;;;;5044478;28;20104;-67
2022/08/24 10:10:58;;;;;;;4.32;1.33;;;;;;;;;;5039829;28;20036;-67
2022/08/24 10:13:46;;;;;;;6.32;1.35;;;;;;;;;;5043731;28;20382;-67
2022/08/24 10:16:12;;;;;;;7.22;1.60;;;;;;;;;;5043102;28;20016;-68
2022/08/24 10:18:44;;;;;;;5.53;1.30;;;;;;;;;;5043027;28;20037;-66
2022/08/24 10:21:13;;;;;;;7.28;1.35;;;;;;;;;;5043884;28;20028;-66
2022/08/24 10:23:55;;;;;;;6.40;1.55;;;;;;;;;;5038090;28;20503;-66
2022/08/24 10:26:30;;;;;;;4.78;1.30;;;;;;;;;;5046497;28;20055;-67
2022/08/24 10:29:03;;;;;;;6.78;1.60;;;;;;;;;;5042784;28;20703;-68
2022/08/24 10:31:38;;;;;;;7.13;1.50;;;;;;;;;;5038264;28;20036;-68
2022/08/24 10:34:22;;;;;;;5.53;1.30;;;;;;;;;;5060575;28;20837;-68
2022/08/24 10:37:14;;;;;;;5.72;1.25;;;;;;;;;;5042846;28;20188;-68
2022/08/24 10:39:40;;;;;;;5.75;1.20;;;;;;;;;;5006307;28;20546;-68
2022/08/24 10:45:20;;;;;;;4.20;1.40;;;;;;;;;;5046946;28;20455;-68
2022/08/24 10:47:46;;;;;;;;;;;;;;;;;;5041528;28;20033;-68
2022/08/24 10:50:18;;;;;;;8.07;1.60;;;;;;;;;;5047101;28;19984;-68
2022/08/24 10:52:44;;;;;;;6.13;1.70;;;;;;;;;;5045287;28;20049;-68
2022/08/24 10:55:16;;;;;;;4.80;1.27;;;;;;;;;;5048043;28;20040;-68
2022/08/24 10:58:02;;;;;;;4.15;1.20;;;;;;;;;;5040299;28;20459;-68
2022/08/24 11:00:29;;;;;;;4.70;1.30;;;;;;;;;;5006010;28;20724;-68
2022/08/24 11:03:12;;;;;;;6.45;1.50;;;;;;;;;;5045520;28;20055;-68
2022/08/24 11:05:44;;;;;;;4.97;1.30;;;;;;;;;;5042166;28;20025;-67
2022/08/24 11:08:18;;;;;;;6.10;1.63;;;;;;;;;;5060755;28;20020;-68
2022/08/24 11:10:45;;;;;;;4.95;1.50;;;;;;;;;;5039420;28;20039;-68
2022/08/24 11:13:17;;;;;;;8.38;1.60;;;;;;;;;;5043128;28;20887;-68
2022/08/24 11:15:50;;;;;;;6.35;1.30;;;;;;;;;;5038723;28;20379;-68
2022/08/24 11:18:16;;;;;;;4.88;1.38;;;;;;;;;;5043764;28;20040;-67
2022/08/24 11:20:45;;;;;;;6.03;1.40;;;;;;;;;;5040073;28;20067;-68
2022/08/24 11:23:21;;;;;;;5.10;1.30;;;;;;;;;;5040962;28;20466;-68
2022/08/24 11:25:53;;;;;;;4.95;1.30;;;;;;;;;;5041503;28;23019;-68
2022/08/24 11:28:19;;;;;;;4.72;1.42;;;;;;;;;;5043344;28;20056;-67
2022/08/24 11:30:46;;;;;;;5.97;1.08;;;;;;;;;;5041446;28;20036;-67
2022/08/24 11:33:32;;;;;;;3.67;0.90;;;;;;;;;;5048551;28;20787;-67
2022/08/24 11:35:59;;;;;;;4.65;1.23;;;;;;;;;;5045133;28;20016;-66
2022/08/24 11:38:30;;;;;;;4.90;1.15;;;;;;;;;;5050088;28;20144;-66
2022/08/24 11:40:56;;;;;;;3.97;1.13;;;;;;;;;;5050770;28;20483;-67
2022/08/24 11:43:32;;;;;;;5.03;1.10;;;;;;;;;;5050760;28;20093;-67
2022/08/24 11:46:05;;;;;;;5.82;1.20;;;;;;;;;;5046057;28;20042;-67
2022/08/24 11:48:35;;;;;;;5.68;1.20;;;;;;;;;;5037113;28;20040;-67
2022/08/24 11:51:07;;;;;;;4.80;1.00;;;;;;;;;;5045293;28;20484;-67
2022/08/24 11:53:33;;;;;;;3.83;1.10;;;;;;;;;;5041476;28;20106;-68
2022/08/24 11:56:05;;;;;;;3.72;1.10;;;;;;;;;;5042862;28;20475;-66
2022/08/24 11:58:31;;;;;;;4.68;1.25;;;;;;;;;;5061612;28;20036;-66
2022/08/24 12:01:14;;;;;;;3.78;1.30;;;;;;;;;;5048292;28;20036;-68
2022/08/24 12:03:49;;;;;;;4.80;1.15;;;;;;;;;;5047206;28;20170;-67
2022/08/24 12:06:27;;;;;;;6.45;1.20;;;;;;;;;;5047377;28;20121;-67
2022/08/24 12:08:59;;;;;;;7.35;1.45;;;;;;;;;;5055938;28;20271;-68
2022/08/24 12:11:34;;;;;;;5.20;1.35;;;;;;;;;;5044846;28;20036;-67
2022/08/24 12:14:12;;;;;;;5.60;1.27;;;;;;;;;;5049021;28;20159;-66
2022/08/24 12:16:58;;;;;;;7.43;1.45;;;;;;;;;;5041237;28;20489;-67
2022/08/24 12:19:29;;;;;;;5.93;1.45;;;;;;;;;;5044152;28;20076;-66
2022/08/24 12:21:56;;;;;;;3.88;1.23;;;;;;;;;;5062550;28;20565;-66
2022/08/24 12:24:25;;;;;;;6.53;1.40;;;;;;;;;;5046574;28;20036;-66
2022/08/24 12:26:56;;;;;;;6.40;1.30;;;;;;;;;;5045448;28;20143;-66
2022/08/24 12:29:22;;;;;;;6.18;1.10;;;;;;;;;;5041562;28;20036;-69
2022/08/24 12:31:51;;;;;;;5.13;1.20;;;;;;;;;;5044595;28;20223;-67
2022/08/24 12:34:23;;;;;;;4.65;1.20;;;;;;;;;;5051722;28;20029;-67
2022/08/24 12:37:01;;;;;;;7.30;1.50;;;;;;;;;;5042748;28;20024;-68
2022/08/24 12:39:46;;;;;;;4.80;1.25;;;;;;;;;;5044265;28;20520;-68
2022/08/24 12:42:12;;;;;;;;;;;;;;;;;;5050778;28;20031;-68
2022/08/24 12:44:58;;;;;;;5.75;1.38;;;;;;;;;;5039867;28;19912;-68
2022/08/24 12:47:28;;;;;;;5.10;1.15;;;;;;;;;;5040601;28;20094;-68
2022/08/24 12:49:57;;;;;;;4.32;1.10;;;;;;;;;;5044083;28;20031;-69
2022/08/24 12:52:37;;;;;;;5.90;1.25;;;;;;;;;;5044272;28;20200;-67
2022/08/24 12:55:22;;;;;;;4.38;1.00;;;;;;;;;;5047264;28;20025;-69
2022/08/24 12:57:48;;;;;;;6.65;1.25;;;;;;;;;;5047993;28;20050;-68
2022/08/24 13:00:31;;;;;;;6.30;1.38;;;;;;;;;;5050204;28;20056;-69
2022/08/24 13:03:02;;;;;;;5.18;1.17;;;;;;;;;;5049113;28;20099;-68
2022/08/24 13:05:40;;;;;;;5.07;1.30;;;;;;;;;;5044650;28;20357;-68
2022/08/24 13:08:15;;;;;;;5.22;1.40;;;;;;;;;;5049938;28;20039;-69
2022/08/24 13:10:42;;;;;;;6.65;1.20;;;;;;;;;;5049245;28;20486;-68
2022/08/24 13:13:11;;;;;;;7.35;1.40;;;;;;;;;;5051273;28;20430;-68
2022/08/24 13:15:37;;;;;;;6.97;1.35;;;;;;;;;;5045151;28;20453;-68
2022/08/24 13:18:06;;;;;;;5.55;1.33;;;;;;;;;;5046880;28;21372;-69
2022/08/24 13:20:32;;;;;;;4.07;1.15;;;;;;;;;;5046928;28;20523;-69
2022/08/24 13:23:13;;;;;;;6.93;1.27;;;;;;;;;;5046750;28;20514;-68
2022/08/24 13:25:42;;;;;;;4.22;1.00;;;;;;;;;;5039854;28;20024;-68
2022/08/24 13:28:10;;;;;;;4.15;1.00;;;;;;;;;;5049285;28;20024;-69
2022/08/24 13:30:53;;;;;;;8.32;1.25;;;;;;;;;;5044564;28;20025;-68
2022/08/24 13:33:29;;;;;;;6.13;1.20;;;;;;;;;;5059772;28;20038;-68
2022/08/24 13:36:01;;;;;;;9.85;1.30;;;;;;;;;;5047948;28;20418;-68
2022/08/24 13:38:32;;;;;;;5.40;1.17;;;;;;;;;;5041020;28;20884;-68
2022/08/24 13:41:04;;;;;;;5.35;1.05;;;;;;;;;;5043090;28;20038;-67
2022/08/24 13:43:38;;;;;;;4.63;1.20;;;;;;;;;;5041137;28;20033;-67
2022/08/24 13:46:10;;;;;;;5.05;1.20;;;;;;;;;;5045712;28;20024;-68
2022/08/24 13:48:45;;;;;;;6.05;1.15;;;;;;;;;;5047227;28;20036;-69
2022/08/24 13:51:20;;;;;;;7.05;1.10;;;;;;;;;;5044314;28;20028;-69
2022/08/24 13:54:01;;;;;;;4.55;1.10;;;;;;;;;;5059046;28;20043;-69
2022/08/24 13:56:57;;;;;;;5.10;1.10;;;;;;;;;;5055774;28;20090;-67
2022/08/24 13:59:41;;;;;;;7.00;1.20;;;;;;;;;;5006901;28;20042;-68
2022/08/24 14:02:07;;;;;;;5.53;1.05;;;;;;;;;;5006015;28;20179;-67
2022/08/24 14:04:39;;;;;;;5.13;1.20;;;;;;;;;;5008700;28;20041;-67
2022/08/24 14:07:26;;;;;;;6.80;1.20;;;;;;;;;;5011115;28;20200;-69
2022/08/24 14:10:06;;;;;;;4.78;1.20;;;;;;;;;;5008441;28;20767;-69
2022/08/24 14:12:33;;;;;;;4.78;1.00;;;;;;;;;;5002617;28;20040;-69
2022/08/24 14:15:08;;;;;;;4.15;0.80;;;;;;;;;;4988335;28;20479;-70
2022/08/24 14:17:52;;;;;;;6.30;1.15;;;;;;;;;;5004485;28;20045;-71
2022/08/24 14:20:31;;;;;;;6.07;1.15;;;;;;;;;;5006918;28;20094;-71
2022/08/24 14:22:59;;;;;;;6.65;1.73;;;;;;;;;;5003955;28;20124;-71
2022/08/24 14:25:29;;;;;;;4.85;1.42;;;;;;;;;;4987987;28;20044;-70
2022/08/24 14:27:58;;;;;;;5.65;1.40;;;;;;;;;;5004806;28;20041;-70
2022/08/24 14:30:24;;;;;;;5.05;1.20;;;;;;;;;;5004300;28;20044;-70
2022/08/24 14:32:59;;;;;;;5.53;1.25;;;;;;;;;;4999816;28;20037;-71
2022/08/24 14:35:35;;;;;;;4.88;1.20;;;;;;;;;;5005189;28;20040;-71
2022/08/24 14:38:04;;;;;;;5.85;1.30;;;;;;;;;;5044507;28;20062;-71
2022/08/24 14:40:30;;;;;;;4.45;0.90;;;;;;;;;;5037923;28;20036;-71
2022/08/24 14:43:17;;;;;;;6.40;1.35;;;;;;;;;;5040669;28;20032;-65
2022/08/24 14:46:08;;;;;;;5.55;1.48;;;;;;;;;;5042095;28;20521;-65
2022/08/24 14:48:54;;;;;;;6.90;1.30;;;;;;;;;;5044996;28;20556;-65
2022/08/24 14:54:06;;;;;;;7.90;1.90;;;;;;;;;;5135311;22;20363;-64
2022/08/24 14:56:44;;;;;;;6.85;2.10;;;;;;;;;;5036125;28;20536;-65
2022/08/24 14:59:29;;;;;;;6.95;1.40;;;;;;;;;;5030305;28;20537;-64
2022/08/24 15:02:18;;;;;;;4.80;1.40;;;;;;;;;;5029840;28;20654;-65
2022/08/24 15:05:11;;;;;;;5.38;1.30;;;;;;;;;;5030039;28;20109;-64
2022/08/24 15:07:37;;;;;;;4.50;1.30;;;;;;;;;;4992557;28;20491;-65
2022/08/24 15:10:10;;;;;;;6.50;1.60;;;;;;;;;;4995584;28;20668;-64
2022/08/24 15:12:45;;;;;;;5.63;1.30;;;;;;;;;;4991144;28;20037;-64
2022/08/24 15:15:32;;;;;;;4.13;0.95;;;;;;;;;;4980635;28;20479;-65